Terminal Aerodrome Forecast
Issued by NWS Pittsburgh, PA

Current Version | Previous Version | Text Only | Print | Product List | Glossary Off
Versions: 1 2 3 4 5 6 7 8 9 10 11 12 13 14 15 16 17 18 19 20 21 22 23 24 25 26

351
FTUS41 KPBZ 201138
TAFPIT
TAF
KPIT 201138Z 2012/2118 20005KT P6SM SCT020 BKN100
     FM202300 21005KT 5SM -RA BR OVC040
     FM210100 13005KT 3SM -RA BR OVC015
     FM210300 VRB03KT 3SM -RA BR OVC008
     FM210700 30005KT P6SM OVC008
     FM211500 32010KT P6SM BKN035=

USA.gov is the U.S. government's official web portal to all federal, state and local government web resources and services.